createdAt,value
2018-09-27T00:00:30.858Z,1013.62
2018-09-27T00:01:36.960Z,1013.61
2018-09-27T00:02:43.079Z,1013.61
2018-09-27T00:03:49.297Z,1013.59
2018-09-27T00:04:55.319Z,1013.56
2018-09-27T00:06:01.417Z,1013.59
2018-09-27T00:07:07.539Z,1013.63
2018-09-27T00:08:14.119Z,1013.61
2018-09-27T00:09:19.774Z,1013.57
2018-09-27T00:10:25.875Z,1013.56
2018-09-27T00:11:31.989Z,1013.58
2018-09-27T00:12:38.107Z,1013.60
2018-09-27T00:13:44.245Z,1013.56
2018-09-27T00:14:50.344Z,1013.57
2018-09-27T00:15:56.472Z,1013.58
2018-09-27T00:17:02.569Z,1013.61
2018-09-27T00:18:08.673Z,1013.58
2018-09-27T00:19:14.797Z,1013.58
2018-09-27T00:20:20.890Z,1013.57
2018-09-27T00:21:27.002Z,1013.56
2018-09-27T00:22:33.131Z,1013.56
2018-09-27T00:23:39.286Z,1013.55
2018-09-27T00:24:45.354Z,1013.57
2018-09-27T00:25:51.471Z,1013.56
2018-09-27T00:26:57.571Z,1013.60
2018-09-27T00:28:04.675Z,1013.55
2018-09-27T00:29:09.802Z,1013.58
2018-09-27T00:30:15.918Z,1013.55
2018-09-27T00:31:22.034Z,1013.58
2018-09-27T00:32:28.127Z,1013.55
2018-09-27T00:33:34.248Z,1013.55
2018-09-27T00:34:40.358Z,1013.56
2018-09-27T00:35:46.456Z,1013.58
2018-09-27T00:36:52.558Z,1013.58
2018-09-27T00:37:58.685Z,1013.58
2018-09-27T00:39:04.799Z,1013.56
2018-09-27T00:40:10.891Z,1013.58
2018-09-27T00:41:17.005Z,1013.54
2018-09-27T00:42:23.116Z,1013.53
2018-09-27T00:43:29.283Z,1013.49
2018-09-27T00:44:35.340Z,1013.49
2018-09-27T00:45:41.429Z,1013.51
2018-09-27T00:46:48.563Z,1013.49
2018-09-27T00:47:53.675Z,1013.48
2018-09-27T00:48:59.765Z,1013.49
2018-09-27T00:50:05.885Z,1013.50
2018-09-27T00:51:11.981Z,1013.52
2018-09-27T00:52:18.103Z,1013.53
2018-09-27T00:53:24.197Z,1013.50
2018-09-27T00:54:30.325Z,1013.44
2018-09-27T00:55:36.431Z,1013.42
2018-09-27T00:56:42.525Z,1013.38
2018-09-27T00:57:48.640Z,1013.43
2018-09-27T00:58:54.746Z,1013.40
2018-09-27T01:00:00.869Z,1013.44
2018-09-27T01:01:06.956Z,1013.42
2018-09-27T01:02:13.077Z,1013.44
2018-09-27T01:03:19.279Z,1013.42
2018-09-27T01:04:25.292Z,1013.44
2018-09-27T01:05:32.390Z,1013.41
2018-09-27T01:06:37.493Z,1013.42
2018-09-27T01:07:43.611Z,1013.39
2018-09-27T01:08:49.728Z,1013.38
2018-09-27T01:09:55.828Z,1013.39
2018-09-27T01:11:02.931Z,1013.40
2018-09-27T01:12:08.034Z,1013.36
2018-09-27T01:13:15.142Z,1013.35
2018-09-27T01:14:20.257Z,1013.37
2018-09-27T01:15:26.370Z,1013.29
2018-09-27T01:16:32.453Z,1013.28
2018-09-27T01:17:38.582Z,1013.32
2018-09-27T01:18:44.679Z,1013.28
2018-09-27T01:19:50.775Z,1013.27
2018-09-27T01:20:56.891Z,1013.20
2018-09-27T01:22:02.982Z,1013.21
2018-09-27T01:23:09.086Z,1013.17
2018-09-27T01:24:15.294Z,1013.20
2018-09-27T01:25:21.316Z,1013.22
2018-09-27T01:26:27.411Z,1013.19
2018-09-27T01:27:33.528Z,1013.18
2018-09-27T01:28:39.619Z,1013.21
2018-09-27T01:29:45.753Z,1013.21
2018-09-27T01:30:51.834Z,1013.16
2018-09-27T01:31:57.929Z,1013.18
2018-09-27T01:33:04.034Z,1013.17
2018-09-27T01:34:10.145Z,1013.16
2018-09-27T01:35:16.283Z,1013.21
2018-09-27T01:36:22.350Z,1013.23
2018-09-27T01:37:28.453Z,1013.21
2018-09-27T01:38:34.561Z,1013.21
2018-09-27T01:39:40.680Z,1013.20
2018-09-27T01:40:46.770Z,1013.18
2018-09-27T01:41:52.874Z,1013.08
2018-09-27T01:42:58.967Z,1013.07
2018-09-27T01:44:05.078Z,1013.04
2018-09-27T01:45:11.171Z,1013.05
2018-09-27T01:46:17.273Z,1013.02
2018-09-27T01:47:23.383Z,1013.09
2018-09-27T01:48:29.500Z,1013.07
2018-09-27T01:49:35.595Z,1013.04
2018-09-27T01:50:41.687Z,1013.07
2018-09-27T01:51:47.790Z,1013.06
2018-09-27T01:52:53.899Z,1013.06
2018-09-27T01:54:00.992Z,1013.04
2018-09-27T01:55:07.109Z,1013.01
2018-09-27T01:56:12.291Z,1012.99
2018-09-27T01:57:18.302Z,1012.98
2018-09-27T01:58:24.416Z,1012.96
2018-09-27T01:59:30.520Z,1013.00
2018-09-27T02:00:36.630Z,1013.01
2018-09-27T02:01:42.743Z,1013.02
2018-09-27T02:02:48.812Z,1012.96
2018-09-27T02:03:54.936Z,1012.95
2018-09-27T02:05:01.030Z,1012.94
2018-09-27T02:06:07.132Z,1012.91
2018-09-27T02:07:13.234Z,1012.97
2018-09-27T02:08:20.349Z,1013.00
2018-09-27T02:09:25.443Z,1013.00
2018-09-27T02:10:31.543Z,1012.94
2018-09-27T02:11:37.644Z,1012.99
2018-09-27T02:12:43.741Z,1013.04
2018-09-27T02:13:49.840Z,1012.99
2018-09-27T02:14:55.948Z,1013.00
2018-09-27T02:16:02.026Z,1013.04
2018-09-27T02:17:08.133Z,1013.09
2018-09-27T02:18:14.285Z,1013.07
2018-09-27T02:19:20.333Z,1013.07
2018-09-27T02:20:26.426Z,1013.00
2018-09-27T02:21:32.539Z,1012.95
2018-09-27T02:22:38.626Z,1012.95
2018-09-27T02:23:44.710Z,1012.96
2018-09-27T02:24:50.848Z,1013.01
2018-09-27T02:25:56.920Z,1013.05
2018-09-27T02:27:03.028Z,1013.02
2018-09-27T02:28:09.114Z,1013.04
2018-09-27T02:29:15.223Z,1013.01
2018-09-27T02:30:21.314Z,1013.01
2018-09-27T02:31:27.428Z,1013.02
2018-09-27T02:32:33.520Z,1013.03
2018-09-27T02:33:39.615Z,1012.98
2018-09-27T02:34:45.700Z,1012.97
2018-09-27T02:35:51.873Z,1012.95
2018-09-27T02:36:57.895Z,1012.96
2018-09-27T02:38:04.007Z,1012.96
2018-09-27T02:39:10.092Z,1012.94
2018-09-27T02:40:16.292Z,1012.94
2018-09-27T02:41:22.301Z,1012.94
2018-09-27T02:42:28.397Z,1012.91
2018-09-27T02:43:34.483Z,1012.92
2018-09-27T02:44:40.588Z,1012.92
2018-09-27T02:45:46.689Z,1012.90
2018-09-27T02:46:52.793Z,1012.89
2018-09-27T02:47:58.861Z,1012.86
2018-09-27T02:49:04.973Z,1012.87
2018-09-27T02:50:11.064Z,1012.87
2018-09-27T02:51:17.153Z,1012.88
2018-09-27T02:52:24.284Z,1012.87
2018-09-27T02:53:29.338Z,1012.85
2018-09-27T02:54:35.416Z,1012.83
2018-09-27T02:55:41.526Z,1012.78
2018-09-27T02:56:47.594Z,1012.74
2018-09-27T02:57:54.690Z,1012.78
2018-09-27T02:58:59.787Z,1012.79
2018-09-27T03:00:05.879Z,1012.83
2018-09-27T03:01:11.984Z,1012.88
2018-09-27T03:02:18.044Z,1012.88
2018-09-27T03:03:24.142Z,1012.92
2018-09-27T03:04:30.279Z,1012.93
2018-09-27T03:05:36.334Z,1012.94
2018-09-27T03:06:43.406Z,1012.97
2018-09-27T03:07:48.480Z,1012.96
2018-09-27T03:08:54.588Z,1012.97
2018-09-27T03:10:00.674Z,1012.91
2018-09-27T03:11:06.797Z,1012.81
2018-09-27T03:12:12.874Z,1012.81
2018-09-27T03:13:19.932Z,1012.81
2018-09-27T03:14:25.033Z,1012.81
2018-09-27T03:15:31.131Z,1012.85
2018-09-27T03:16:37.193Z,1012.76
2018-09-27T03:17:43.293Z,1012.78
2018-09-27T03:18:49.372Z,1012.72
2018-09-27T03:19:55.485Z,1012.73
2018-09-27T03:21:01.614Z,1012.71
2018-09-27T03:22:07.647Z,1012.72
2018-09-27T03:23:13.732Z,1012.72
2018-09-27T03:24:19.821Z,1012.73
2018-09-27T03:25:25.930Z,1012.70
2018-09-27T03:26:32.004Z,1012.69
2018-09-27T03:27:38.093Z,1012.66
2018-09-27T03:28:44.276Z,1012.64
2018-09-27T03:29:50.292Z,1012.62
2018-09-27T03:30:56.364Z,1012.66
2018-09-27T03:32:02.440Z,1012.67
2018-09-27T03:33:08.529Z,1012.71
2018-09-27T03:34:14.619Z,1012.73
2018-09-27T03:35:20.715Z,1012.68
2018-09-27T03:36:26.795Z,1012.69
2018-09-27T03:37:32.871Z,1012.65
2018-09-27T03:38:38.966Z,1012.62
2018-09-27T03:39:45.161Z,1012.64
2018-09-27T03:40:51.133Z,1012.64
2018-09-27T03:41:57.209Z,1012.60
2018-09-27T03:43:03.296Z,1012.59
2018-09-27T03:44:09.374Z,1012.58
2018-09-27T03:45:15.467Z,1012.57
2018-09-27T03:46:21.562Z,1012.59
2018-09-27T03:47:27.642Z,1012.57
2018-09-27T03:48:33.715Z,1012.54
2018-09-27T03:49:39.827Z,1012.53
2018-09-27T03:50:45.902Z,1012.56
2018-09-27T03:51:51.981Z,1012.57
2018-09-27T03:52:58.053Z,1012.60
2018-09-27T03:54:04.147Z,1012.62
2018-09-27T03:55:10.277Z,1012.65
2018-09-27T03:56:16.302Z,1012.59
2018-09-27T03:57:22.389Z,1012.56
2018-09-27T03:58:28.463Z,1012.54
2018-09-27T03:59:34.564Z,1012.54
2018-09-27T04:00:40.645Z,1012.52
2018-09-27T04:01:46.711Z,1012.55
2018-09-27T04:02:52.810Z,1012.58
2018-09-27T04:03:58.886Z,1012.55
2018-09-27T04:05:04.962Z,1012.51
2018-09-27T04:06:11.070Z,1012.53
2018-09-27T04:07:17.133Z,1012.51
2018-09-27T04:08:23.208Z,1012.52
2018-09-27T04:09:29.307Z,1012.53
2018-09-27T04:10:35.382Z,1012.52
2018-09-27T04:11:41.469Z,1012.52
2018-09-27T04:12:47.537Z,1012.51
2018-09-27T04:13:53.622Z,1012.48
2018-09-27T04:14:59.703Z,1012.47
2018-09-27T04:16:05.789Z,1012.45
2018-09-27T04:17:12.856Z,1012.43
2018-09-27T04:18:17.946Z,1012.44
2018-09-27T04:19:24.037Z,1012.45
2018-09-27T04:20:30.114Z,1012.47
2018-09-27T04:21:36.288Z,1012.47
2018-09-27T04:22:42.274Z,1012.50
2018-09-27T04:23:48.354Z,1012.50
2018-09-27T04:24:54.454Z,1012.47
2018-09-27T04:26:00.519Z,1012.46
2018-09-27T04:27:06.608Z,1012.47
2018-09-27T04:28:12.692Z,1012.51
2018-09-27T04:29:18.754Z,1012.52
2018-09-27T04:30:24.850Z,1012.50
2018-09-27T04:31:31.229Z,1012.49
2018-09-27T04:32:37.007Z,1012.45
2018-09-27T04:33:43.119Z,1012.45
2018-09-27T04:34:49.183Z,1012.40
2018-09-27T04:35:55.270Z,1012.50
2018-09-27T04:37:01.359Z,1012.45
2018-09-27T04:38:07.404Z,1012.48
2018-09-27T04:39:13.492Z,1012.50
2018-09-27T04:40:19.600Z,1012.46
2018-09-27T04:41:25.671Z,1012.46
2018-09-27T04:42:31.740Z,1012.42
2018-09-27T04:43:37.841Z,1012.40
2018-09-27T04:44:44.913Z,1012.39
2018-09-27T04:45:50.042Z,1012.42
2018-09-27T04:46:56.086Z,1012.40
2018-09-27T04:48:02.151Z,1012.40
2018-09-27T04:49:08.294Z,1012.42
2018-09-27T04:50:14.312Z,1012.35
2018-09-27T04:51:20.398Z,1012.36
2018-09-27T04:52:26.475Z,1012.37
2018-09-27T04:53:32.545Z,1012.38
2018-09-27T04:54:38.714Z,1012.36
2018-09-27T04:55:44.718Z,1012.37
2018-09-27T04:56:50.792Z,1012.38
2018-09-27T04:57:56.871Z,1012.39
2018-09-27T04:59:02.948Z,1012.43
2018-09-27T05:00:09.121Z,1012.40
2018-09-27T05:01:14.603Z,1012.40
2018-09-27T05:02:21.181Z,1012.41
2018-09-27T05:03:27.257Z,1012.40
2018-09-27T05:04:33.328Z,1012.38
2018-09-27T05:05:39.405Z,1012.36
2018-09-27T05:06:45.495Z,1012.35
2018-09-27T05:07:51.575Z,1012.38
2018-09-27T05:08:57.644Z,1012.36
2018-09-27T05:10:03.715Z,1012.37
2018-09-27T05:11:09.800Z,1012.39
2018-09-27T05:12:15.878Z,1012.37
2018-09-27T05:13:21.948Z,1012.36
2018-09-27T05:14:28.032Z,1012.34
2018-09-27T05:15:34.135Z,1012.35
2018-09-27T05:16:40.281Z,1012.35
2018-09-27T05:17:46.284Z,1012.37
2018-09-27T05:18:52.348Z,1012.32
2018-09-27T05:19:58.411Z,1012.32
2018-09-27T05:21:04.486Z,1012.30
2018-09-27T05:22:10.586Z,1012.25
2018-09-27T05:23:16.660Z,1012.28
2018-09-27T05:24:22.726Z,1012.26
2018-09-27T05:25:28.808Z,1012.26
2018-09-27T05:26:34.892Z,1012.28
2018-09-27T05:27:40.994Z,1012.28
2018-09-27T05:28:47.044Z,1012.26
2018-09-27T05:29:54.127Z,1012.29
2018-09-27T05:30:59.217Z,1012.30
2018-09-27T05:32:05.311Z,1012.26
2018-09-27T05:33:11.425Z,1012.25
2018-09-27T05:34:17.466Z,1012.23
2018-09-27T05:35:23.546Z,1012.23
2018-09-27T05:36:29.625Z,1012.27
2018-09-27T05:37:35.731Z,1012.29
2018-09-27T05:38:41.783Z,1012.27
2018-09-27T05:39:48.862Z,1012.26
2018-09-27T05:40:53.962Z,1012.31
2018-09-27T05:42:00.035Z,1012.31
2018-09-27T05:43:06.131Z,1012.29
2018-09-27T05:44:12.214Z,1012.31
2018-09-27T05:45:18.298Z,1012.34
2018-09-27T05:46:25.520Z,1012.32
2018-09-27T05:47:30.476Z,1012.33
2018-09-27T05:48:36.552Z,1012.29
2018-09-27T05:49:42.662Z,1012.31
2018-09-27T05:50:48.729Z,1012.33
2018-09-27T05:51:54.818Z,1012.34
2018-09-27T05:53:00.929Z,1012.35
2018-09-27T05:54:06.977Z,1012.36
2018-09-27T05:55:14.067Z,1012.40
2018-09-27T05:56:19.283Z,1012.37
2018-09-27T05:57:25.303Z,1012.35
2018-09-27T05:58:31.361Z,1012.35
2018-09-27T05:59:37.442Z,1012.35
2018-09-27T06:00:43.522Z,1012.35
2018-09-27T06:01:49.638Z,1012.31
2018-09-27T06:02:55.728Z,1012.34
2018-09-27T06:04:01.798Z,1012.33
2018-09-27T06:05:07.893Z,1012.38
2018-09-27T06:06:13.997Z,1012.40
2018-09-27T06:07:20.092Z,1012.41
2018-09-27T06:08:26.197Z,1012.42
2018-09-27T06:09:32.300Z,1012.40
2018-09-27T06:10:38.395Z,1012.42
2018-09-27T06:11:44.486Z,1012.45
2018-09-27T06:12:50.595Z,1012.45
2018-09-27T06:13:56.683Z,1012.50
2018-09-27T06:15:02.805Z,1012.46
2018-09-27T06:16:08.911Z,1012.43
2018-09-27T06:17:15.016Z,1012.42
2018-09-27T06:18:21.130Z,1012.44
2018-09-27T06:19:27.314Z,1012.45
2018-09-27T06:20:33.367Z,1012.40
2018-09-27T06:21:39.576Z,1012.41
2018-09-27T06:22:45.568Z,1012.40
2018-09-27T06:23:51.686Z,1012.37
2018-09-27T06:24:57.798Z,1012.40
2018-09-27T06:26:03.910Z,1012.38
2018-09-27T06:27:10.028Z,1012.38
2018-09-27T06:28:16.136Z,1012.35
2018-09-27T06:29:22.277Z,1012.36
2018-09-27T06:30:28.825Z,1012.35
2018-09-27T06:31:34.480Z,1012.38
2018-09-27T06:32:40.608Z,1012.43
2018-09-27T06:33:46.725Z,1012.42
2018-09-27T06:34:52.847Z,1012.42
2018-09-27T06:35:58.952Z,1012.39
2018-09-27T06:37:05.072Z,1012.37
2018-09-27T06:38:11.293Z,1012.38
2018-09-27T06:39:17.300Z,1012.37
2018-09-27T06:40:23.424Z,1012.38
2018-09-27T06:41:29.592Z,1012.39
2018-09-27T06:42:35.650Z,1012.39
2018-09-27T06:43:42.786Z,1012.41
2018-09-27T06:44:47.942Z,1012.39
2018-09-27T06:45:54.034Z,1012.40
2018-09-27T06:47:00.276Z,1012.40
2018-09-27T06:48:06.289Z,1012.36
2018-09-27T06:49:12.405Z,1012.34
2018-09-27T06:50:18.537Z,1012.38
2018-09-27T06:51:24.658Z,1012.38
2018-09-27T06:52:30.793Z,1012.33
2018-09-27T06:53:36.936Z,1012.33
2018-09-27T06:54:43.995Z,1012.31
2018-09-27T06:55:49.280Z,1012.31
2018-09-27T06:56:55.324Z,1012.33
2018-09-27T06:58:01.458Z,1012.32
2018-09-27T06:59:07.602Z,1012.34
2018-09-27T07:00:13.738Z,1012.30
2018-09-27T07:01:19.883Z,1012.35
2018-09-27T07:02:26.060Z,1012.37
2018-09-27T07:03:33.142Z,1012.33
2018-09-27T07:04:38.282Z,1012.29
2018-09-27T07:05:44.429Z,1012.30
2018-09-27T07:06:50.587Z,1012.29
2018-09-27T07:07:56.717Z,1012.26
2018-09-27T07:09:02.863Z,1012.23
2018-09-27T07:10:09.000Z,1012.24
2018-09-27T07:11:15.145Z,1012.27
2018-09-27T07:12:21.406Z,1012.20
2018-09-27T07:13:27.457Z,1012.20
2018-09-27T07:14:33.624Z,1012.21
2018-09-27T07:15:39.855Z,1012.23
2018-09-27T07:16:45.896Z,1012.19
2018-09-27T07:17:52.049Z,1012.19
2018-09-27T07:18:58.282Z,1012.26
2018-09-27T07:20:04.358Z,1012.21
2018-09-27T07:21:10.515Z,1012.18
2018-09-27T07:22:16.676Z,1012.20
2018-09-27T07:23:22.850Z,1012.22
2018-09-27T07:24:29.995Z,1012.22
2018-09-27T07:25:35.159Z,1012.21
2018-09-27T07:26:41.444Z,1012.19
2018-09-27T07:27:47.485Z,1012.23
2018-09-27T07:28:53.667Z,1012.23
2018-09-27T07:29:59.823Z,1012.23
2018-09-27T07:31:06.008Z,1012.23
2018-09-27T07:32:12.278Z,1012.19
2018-09-27T07:33:18.349Z,1012.23
2018-09-27T07:34:24.526Z,1012.24
2018-09-27T07:35:31.677Z,1012.21
2018-09-27T07:36:36.985Z,1012.22
2018-09-27T07:37:43.028Z,1012.21
2018-09-27T07:38:50.280Z,1012.22
2018-09-27T07:39:55.405Z,1012.23
2018-09-27T07:41:01.585Z,1012.16
2018-09-27T07:42:07.773Z,1012.16
2018-09-27T07:43:13.957Z,1012.18
2018-09-27T07:44:20.148Z,1012.21
2018-09-27T07:45:26.322Z,1012.27
2018-09-27T07:46:32.504Z,1012.25
2018-09-27T07:47:38.691Z,1012.27
2018-09-27T07:48:44.904Z,1012.26
2018-09-27T07:49:51.084Z,1012.28
2018-09-27T07:50:57.262Z,1012.29
2018-09-27T07:52:04.459Z,1012.24
2018-09-27T07:53:09.651Z,1012.22
2018-09-27T07:54:15.911Z,1012.23
2018-09-27T07:55:22.057Z,1012.21
2018-09-27T07:56:28.305Z,1012.20
2018-09-27T07:57:34.478Z,1012.17
2018-09-27T07:58:40.674Z,1012.16
2018-09-27T07:59:46.865Z,1012.14
2018-09-27T08:00:53.096Z,1012.19
2018-09-27T08:01:59.279Z,1012.17
2018-09-27T08:03:05.517Z,1012.17
2018-09-27T08:04:11.758Z,1012.12
2018-09-27T08:05:17.890Z,1012.12
2018-09-27T08:06:24.106Z,1012.09
2018-09-27T08:07:30.328Z,1012.04
2018-09-27T08:08:36.585Z,1012.01
2018-09-27T08:09:42.761Z,1012.01
2018-09-27T08:10:49.000Z,1011.97
2018-09-27T08:11:55.309Z,1011.95
2018-09-27T08:13:01.458Z,1011.96
2018-09-27T08:14:07.695Z,1011.97
2018-09-27T08:15:13.932Z,1011.98
2018-09-27T08:16:20.171Z,1012.02
2018-09-27T08:17:26.419Z,1011.98
2018-09-27T08:18:32.660Z,1011.98
2018-09-27T08:19:38.901Z,1011.96
2018-09-27T08:20:45.336Z,1011.97
2018-09-27T08:21:51.388Z,1011.96
2018-09-27T08:22:57.647Z,1012.00
2018-09-27T08:24:03.985Z,1011.99
2018-09-27T08:25:11.131Z,1011.95
2018-09-27T08:26:17.408Z,1012.01
2018-09-27T08:27:22.649Z,1012.00
2018-09-27T08:28:28.916Z,1011.96
2018-09-27T08:29:35.201Z,1011.96
2018-09-27T08:30:41.488Z,1012.01
2018-09-27T08:31:47.711Z,1011.95
2018-09-27T08:32:53.964Z,1011.95
2018-09-27T08:34:00.281Z,1011.91
2018-09-27T08:35:06.525Z,1011.92
2018-09-27T08:36:12.781Z,1011.97
2018-09-27T08:37:19.046Z,1011.95
2018-09-27T08:38:25.408Z,1011.90
2018-09-27T08:39:31.586Z,1011.89
2018-09-27T08:40:37.875Z,1011.96
2018-09-27T08:41:44.151Z,1011.95
2018-09-27T08:42:50.428Z,1011.95
2018-09-27T08:43:56.720Z,1011.94
2018-09-27T08:45:03.114Z,1011.93
2018-09-27T08:46:09.284Z,1011.95
2018-09-27T08:48:21.831Z,1011.93
2018-09-27T08:49:28.144Z,1011.97
2018-09-27T08:50:35.032Z,1011.93
2018-09-27T08:51:40.761Z,1011.90
2018-09-27T08:52:48.000Z,1011.91
2018-09-27T08:53:54.324Z,1011.92
2018-09-27T08:54:59.576Z,1011.88
2018-09-27T08:56:05.990Z,1011.84
2018-09-27T08:57:11.693Z,1011.79
2018-09-27T08:58:18.477Z,1011.79
2018-09-27T08:59:24.792Z,1011.75
2018-09-27T09:00:31.078Z,1011.73
2018-09-27T09:01:37.436Z,1011.69
2018-09-27T09:02:43.710Z,1011.71
2018-09-27T09:03:50.001Z,1011.66
2018-09-27T09:04:57.303Z,1011.66
2018-09-27T09:06:02.632Z,1011.66
2018-09-27T09:07:08.928Z,1011.56
2018-09-27T09:08:15.236Z,1011.52
2018-09-27T09:09:22.572Z,1011.54
2018-09-27T09:10:27.870Z,1011.49
2018-09-27T09:11:34.269Z,1011.46
2018-09-27T09:12:40.503Z,1011.47
2018-09-27T09:13:46.834Z,1011.46
2018-09-27T09:14:53.155Z,1011.49
2018-09-27T09:15:59.471Z,1011.50
2018-09-27T09:17:05.801Z,1011.50
2018-09-27T09:18:12.106Z,1011.40
2018-09-27T09:19:18.457Z,1011.43
2018-09-27T09:20:25.769Z,1011.43
2018-09-27T09:21:31.155Z,1011.42
2018-09-27T09:22:37.438Z,1011.42
2018-09-27T09:23:43.776Z,1011.45
2018-09-27T09:24:50.129Z,1011.40
2018-09-27T09:25:56.481Z,1011.44
2018-09-27T09:27:02.771Z,1011.44
2018-09-27T09:28:09.115Z,1011.43
2018-09-27T09:29:15.488Z,1011.36
2018-09-27T09:30:21.810Z,1011.38
2018-09-27T09:31:28.139Z,1011.38
2018-09-27T09:32:34.492Z,1011.36
2018-09-27T09:33:40.881Z,1011.33
2018-09-27T09:34:47.197Z,1011.33
2018-09-27T09:35:53.580Z,1011.34
2018-09-27T09:36:59.909Z,1011.32
2018-09-27T09:38:06.303Z,1011.31
2018-09-27T09:39:12.620Z,1011.28
2018-09-27T09:40:19.945Z,1011.31
2018-09-27T09:41:25.323Z,1011.35
2018-09-27T09:42:31.685Z,1011.31
2018-09-27T09:43:38.054Z,1011.25
2018-09-27T09:44:44.407Z,1011.24
2018-09-27T09:45:50.762Z,1011.24
2018-09-27T09:46:57.153Z,1011.21
2018-09-27T09:48:03.508Z,1011.22
2018-09-27T09:49:09.863Z,1011.21
2018-09-27T09:50:16.282Z,1011.23
2018-09-27T09:51:22.630Z,1011.16
2018-09-27T09:52:29.001Z,1011.19
2018-09-27T09:53:35.388Z,1011.21
2018-09-27T09:54:41.757Z,1011.21
2018-09-27T09:55:48.137Z,1011.20
2018-09-27T09:56:54.520Z,1011.15
2018-09-27T09:58:00.899Z,1011.12
2018-09-27T09:59:08.228Z,1011.07
2018-09-27T10:00:13.663Z,1011.09
2018-09-27T10:01:20.059Z,1011.08
2018-09-27T10:02:26.560Z,1011.05
2018-09-27T10:03:32.852Z,1011.05
2018-09-27T10:04:39.234Z,1011.03
2018-09-27T10:05:45.643Z,1011.03
2018-09-27T10:06:52.027Z,1011.00
2018-09-27T10:07:58.422Z,1010.95
2018-09-27T10:09:04.407Z,1010.97
2018-09-27T10:10:11.235Z,1010.97
2018-09-27T10:11:17.657Z,1010.96
2018-09-27T10:12:24.037Z,1010.92
2018-09-27T10:13:30.434Z,1010.86
2018-09-27T10:14:36.852Z,1010.89
2018-09-27T10:15:43.705Z,1010.86
2018-09-27T10:16:49.689Z,1010.82
2018-09-27T10:17:56.083Z,1010.84
2018-09-27T10:19:02.492Z,1010.78
2018-09-27T10:20:08.927Z,1010.74
2018-09-27T10:21:15.347Z,1010.76
2018-09-27T10:22:21.768Z,1010.72
2018-09-27T10:23:28.184Z,1010.76
2018-09-27T10:24:34.631Z,1010.66
2018-09-27T10:25:41.030Z,1010.67
2018-09-27T10:26:47.456Z,1010.67
2018-09-27T10:27:53.876Z,1010.62
2018-09-27T10:29:00.300Z,1010.59
2018-09-27T10:30:06.727Z,1010.60
2018-09-27T10:31:13.159Z,1010.57
2018-09-27T10:32:19.590Z,1010.56
2018-09-27T10:33:26.042Z,1010.51
2018-09-27T10:34:33.491Z,1010.53
2018-09-27T10:35:38.909Z,1010.48
2018-09-27T10:36:45.335Z,1010.48
2018-09-27T10:37:51.776Z,1010.45
2018-09-27T10:38:58.231Z,1010.43
2018-09-27T10:40:04.669Z,1010.39
2018-09-27T10:41:11.126Z,1010.46
2018-09-27T10:42:18.579Z,1010.43
2018-09-27T10:43:24.009Z,1010.37
2018-09-27T10:44:30.440Z,1010.38
2018-09-27T10:45:36.918Z,1010.34
2018-09-27T10:46:43.385Z,1010.39
2018-09-27T10:47:49.810Z,1010.39
2018-09-27T10:48:56.312Z,1010.37
2018-09-27T10:50:02.725Z,1010.38
2018-09-27T10:51:09.316Z,1010.37
2018-09-27T10:52:15.683Z,1010.40
2018-09-27T10:53:22.099Z,1010.37
2018-09-27T10:54:28.569Z,1010.33
2018-09-27T10:55:36.015Z,1010.29
2018-09-27T10:56:42.436Z,1010.26
2018-09-27T10:57:47.963Z,1010.23
2018-09-27T10:58:54.414Z,1010.23
2018-09-27T11:00:00.914Z,1010.19
2018-09-27T11:01:07.383Z,1010.20
2018-09-27T11:02:13.879Z,1010.20
2018-09-27T11:03:20.319Z,1010.14
2018-09-27T11:04:26.786Z,1010.12
2018-09-27T11:05:33.314Z,1010.19
2018-09-27T11:06:39.759Z,1010.13
2018-09-27T11:07:46.220Z,1010.11
2018-09-27T11:08:52.718Z,1010.07
2018-09-27T11:09:59.273Z,1010.05
2018-09-27T11:11:05.771Z,1010.02
2018-09-27T11:12:12.201Z,1010.04
2018-09-27T11:13:18.667Z,1010.02
2018-09-27T11:14:25.283Z,1009.99
2018-09-27T11:15:32.664Z,1009.96
2018-09-27T11:16:39.203Z,1009.98
2018-09-27T11:17:44.673Z,1009.96
2018-09-27T11:18:51.163Z,1009.91
2018-09-27T11:19:57.686Z,1009.88
2018-09-27T11:21:04.191Z,1009.89
2018-09-27T11:22:10.716Z,1009.87
2018-09-27T11:23:17.298Z,1009.87
2018-09-27T11:24:23.910Z,1009.86
2018-09-27T11:25:30.549Z,1009.83
2018-09-27T11:26:37.281Z,1009.77
2018-09-27T11:27:44.070Z,1009.80
2018-09-27T11:28:50.691Z,1009.77
2018-09-27T11:29:58.459Z,1009.73
2018-09-27T11:31:04.274Z,1009.67
2018-09-27T11:32:11.102Z,1009.65
2018-09-27T11:33:17.974Z,1009.64
2018-09-27T11:34:24.866Z,1009.60
2018-09-27T11:35:32.790Z,1009.59
2018-09-27T11:36:38.725Z,1009.59
2018-09-27T11:37:45.653Z,1009.53
2018-09-27T11:38:52.635Z,1009.53
2018-09-27T11:39:59.614Z,1009.54
2018-09-27T11:41:06.746Z,1009.47
2018-09-27T11:42:14.635Z,1009.41
2018-09-27T11:43:21.647Z,1009.36
2018-09-27T11:44:27.685Z,1009.32
2018-09-27T11:45:34.734Z,1009.32
2018-09-27T11:46:41.813Z,1009.29
2018-09-27T11:47:48.865Z,1009.28
2018-09-27T11:48:56.038Z,1009.21
2018-09-27T11:50:03.435Z,1009.20
2018-09-27T11:51:10.145Z,1009.22
2018-09-27T11:52:17.596Z,1009.19
2018-09-27T11:53:24.411Z,1009.13
2018-09-27T11:54:31.524Z,1009.14
2018-09-27T11:55:39.666Z,1009.08
2018-09-27T11:56:45.831Z,1009.06
2018-09-27T11:57:52.969Z,1009.05
2018-09-27T11:59:00.150Z,1009.04
2018-09-27T12:00:07.294Z,1009.02
2018-09-27T12:01:14.477Z,1009.02
2018-09-27T12:02:21.666Z,1009.02
2018-09-27T12:03:28.849Z,1008.93
2018-09-27T12:04:36.035Z,1008.90
2018-09-27T12:05:43.277Z,1008.86
2018-09-27T12:06:50.937Z,1008.79
2018-09-27T12:07:57.696Z,1008.81
2018-09-27T12:09:04.916Z,1008.79
2018-09-27T12:10:11.668Z,1008.80
2018-09-27T12:11:19.409Z,1008.71
2018-09-27T12:12:26.166Z,1008.70
2018-09-27T12:13:34.015Z,1008.63
2018-09-27T12:14:41.317Z,1008.63
2018-09-27T12:15:48.438Z,1008.62
2018-09-27T12:16:55.705Z,1008.58
2018-09-27T12:18:02.972Z,1008.59
2018-09-27T12:19:10.725Z,1008.56
2018-09-27T12:20:17.488Z,1008.46
2018-09-27T12:21:24.764Z,1008.43
2018-09-27T12:22:32.034Z,1008.40
2018-09-27T12:23:39.308Z,1008.42
2018-09-27T12:24:46.588Z,1008.39
2018-09-27T12:25:53.855Z,1008.36
2018-09-27T12:27:00.662Z,1008.35
2018-09-27T12:28:07.942Z,1008.34
2018-09-27T12:29:15.729Z,1008.33
2018-09-27T12:30:23.018Z,1008.29
2018-09-27T12:31:29.823Z,1008.31
2018-09-27T12:32:37.613Z,1008.25
2018-09-27T12:33:44.909Z,1008.21
2018-09-27T12:34:52.218Z,1008.19
2018-09-27T12:35:59.491Z,1008.14
2018-09-27T12:37:06.803Z,1008.12
2018-09-27T12:38:14.134Z,1008.13
2018-09-27T12:39:21.412Z,1008.09
2018-09-27T12:40:28.203Z,1008.04
2018-09-27T12:41:36.085Z,1008.01
2018-09-27T12:42:43.438Z,1008.00
2018-09-27T12:43:50.624Z,1007.99
2018-09-27T12:44:57.995Z,1007.94
2018-09-27T12:46:05.395Z,1007.92
2018-09-27T12:47:12.571Z,1007.89
2018-09-27T12:48:19.450Z,1007.86
2018-09-27T12:49:27.287Z,1007.88
2018-09-27T12:50:34.055Z,1007.77
2018-09-27T12:51:41.914Z,1007.78
2018-09-27T12:52:48.773Z,1007.76
2018-09-27T12:53:56.004Z,1007.69
2018-09-27T12:55:03.810Z,1007.72
2018-09-27T12:56:11.286Z,1007.69
2018-09-27T12:57:18.455Z,1007.65
2018-09-27T12:58:25.821Z,1007.63
2018-09-27T12:59:33.084Z,1007.58
2018-09-27T13:00:40.413Z,1007.51
2018-09-27T13:01:47.863Z,1007.52
2018-09-27T13:02:55.167Z,1007.45
2018-09-27T13:04:01.943Z,1007.47
2018-09-27T13:05:09.737Z,1007.49
2018-09-27T13:06:17.079Z,1007.44
2018-09-27T13:07:24.457Z,1007.39
2018-09-27T13:08:31.873Z,1007.36
2018-09-27T13:09:39.389Z,1007.39
2018-09-27T13:10:46.541Z,1007.33
2018-09-27T13:11:54.008Z,1007.29
2018-09-27T13:13:01.380Z,1007.29
2018-09-27T13:14:08.764Z,1007.26
2018-09-27T13:15:16.159Z,1007.24
2018-09-27T13:16:23.579Z,1007.17
2018-09-27T13:17:31.055Z,1007.14
2018-09-27T13:18:38.923Z,1007.13
2018-09-27T13:19:45.867Z,1007.12
2018-09-27T13:20:53.282Z,1007.11
2018-09-27T13:22:00.684Z,1007.06
2018-09-27T13:23:08.118Z,1007.07